createdAt,value
2018-09-29T00:01:35.378Z,12.37
2018-09-29T00:04:04.366Z,13.03
2018-09-29T00:06:32.862Z,7.20
2018-09-29T00:09:01.245Z,9.87
2018-09-29T00:11:29.643Z,10.83
2018-09-29T00:13:58.080Z,8.27
2018-09-29T00:16:26.530Z,7.20
2018-09-29T00:18:55.035Z,7.60
2018-09-29T00:21:23.436Z,7.57
2018-09-29T00:23:52.067Z,6.37
2018-09-29T00:26:20.468Z,5.83
2018-09-29T00:28:48.863Z,4.70
2018-09-29T00:31:17.266Z,4.33
2018-09-29T00:33:45.648Z,4.70
2018-09-29T00:36:14.052Z,4.90
2018-09-29T00:38:42.417Z,4.20
2018-09-29T00:41:11.031Z,4.60
2018-09-29T00:43:39.437Z,3.80
2018-09-29T00:46:08.104Z,4.10
2018-09-29T00:48:36.509Z,3.73
2018-09-29T00:51:05.315Z,3.73
2018-09-29T00:53:33.801Z,4.70
2018-09-29T00:56:02.220Z,4.80
2018-09-29T00:58:30.624Z,4.53
2018-09-29T01:00:59.064Z,5.53
2018-09-29T01:03:27.452Z,5.33
2018-09-29T01:05:55.865Z,5.90
2018-09-29T01:08:24.308Z,5.80
2018-09-29T01:10:52.719Z,7.90
2018-09-29T01:13:21.116Z,6.83
2018-09-29T01:15:49.523Z,6.00
2018-09-29T01:18:17.991Z,6.47
2018-09-29T01:20:46.590Z,6.87
2018-09-29T01:23:15.079Z,6.53
2018-09-29T01:25:43.467Z,8.13
2018-09-29T01:28:11.960Z,10.27
2018-09-29T01:30:40.340Z,9.43
2018-09-29T01:33:08.744Z,9.83
2018-09-29T01:35:37.224Z,8.67
2018-09-29T01:38:05.651Z,7.43
2018-09-29T01:40:34.253Z,6.77
2018-09-29T01:43:02.671Z,6.33
2018-09-29T01:45:31.049Z,5.50
2018-09-29T01:47:59.440Z,11.23
2018-09-29T01:50:27.868Z,10.20
2018-09-29T01:52:56.240Z,13.00
2018-09-29T01:55:24.654Z,17.60
2018-09-29T01:57:53.073Z,18.60
2018-09-29T02:00:21.459Z,18.43
2018-09-29T02:02:49.876Z,19.77
2018-09-29T02:05:18.348Z,18.67
2018-09-29T02:07:46.760Z,15.63
2018-09-29T02:10:15.157Z,13.00
2018-09-29T02:12:43.552Z,12.00
2018-09-29T02:15:11.964Z,10.53
2018-09-29T02:17:40.367Z,9.17
2018-09-29T02:20:08.765Z,9.00
2018-09-29T02:22:37.141Z,7.80
2018-09-29T02:25:05.575Z,6.77
2018-09-29T02:27:33.953Z,5.80
2018-09-29T02:30:02.341Z,6.27
2018-09-29T02:32:30.697Z,6.77
2018-09-29T02:34:58.835Z,6.30
2018-09-29T02:37:27.237Z,5.57
2018-09-29T02:39:55.632Z,5.20
2018-09-29T02:42:24.056Z,5.83
2018-09-29T02:44:52.463Z,5.50
2018-09-29T02:47:21.305Z,5.23
2018-09-29T02:49:49.680Z,5.17
2018-09-29T02:52:18.108Z,4.77
2018-09-29T02:54:46.554Z,4.47
2018-09-29T02:57:14.955Z,5.43
2018-09-29T02:59:43.349Z,5.70
2018-09-29T03:02:11.887Z,6.00
2018-09-29T03:04:40.304Z,6.90
2018-09-29T03:07:08.782Z,4.93
2018-09-29T03:09:37.117Z,5.33
2018-09-29T03:12:05.616Z,4.93
2018-09-29T03:14:34.038Z,4.50
2018-09-29T03:17:03.357Z,4.57
2018-09-29T03:19:31.736Z,4.20
2018-09-29T03:22:00.165Z,3.60
2018-09-29T03:24:28.569Z,3.30
2018-09-29T03:26:56.949Z,3.60
2018-09-29T03:29:25.365Z,3.60
2018-09-29T03:31:53.923Z,3.57
2018-09-29T03:34:22.272Z,3.23
2018-09-29T03:36:50.684Z,3.30
2018-09-29T03:39:19.066Z,3.80
2018-09-29T03:41:47.476Z,3.67
2018-09-29T03:44:15.854Z,4.00
2018-09-29T03:46:44.264Z,3.17
2018-09-29T03:49:12.653Z,3.80
2018-09-29T03:51:41.078Z,3.40
2018-09-29T03:54:09.195Z,3.90
2018-09-29T03:56:37.593Z,3.37
2018-09-29T03:59:06.028Z,3.27
2018-09-29T04:01:34.506Z,3.70
2018-09-29T04:04:02.905Z,3.20
2018-09-29T04:06:31.265Z,3.20
2018-09-29T04:08:59.657Z,3.73
2018-09-29T04:11:28.146Z,3.27
2018-09-29T04:13:56.576Z,3.20
2018-09-29T04:16:25.697Z,3.20
2018-09-29T04:18:54.087Z,3.50
2018-09-29T04:21:22.464Z,3.63
2018-09-29T04:23:51.168Z,3.33
2018-09-29T04:26:19.564Z,3.17
2018-09-29T04:28:47.961Z,3.43
2018-09-29T04:31:16.374Z,3.20
2018-09-29T04:33:44.943Z,3.23
2018-09-29T04:36:13.354Z,2.97
2018-09-29T04:38:41.960Z,3.30
2018-09-29T04:41:10.320Z,3.43
2018-09-29T04:43:38.720Z,2.93
2018-09-29T04:46:07.145Z,3.10
2018-09-29T04:48:35.594Z,3.33
2018-09-29T04:51:04.033Z,2.73
2018-09-29T04:53:32.707Z,3.10
2018-09-29T04:56:01.104Z,3.03
2018-09-29T04:58:29.540Z,2.73
2018-09-29T05:00:57.908Z,2.83
2018-09-29T05:03:26.279Z,2.93
2018-09-29T05:05:54.659Z,3.20
2018-09-29T05:08:23.116Z,3.30
2018-09-29T05:10:51.590Z,3.00
2018-09-29T05:13:19.969Z,3.23
2018-09-29T05:15:48.382Z,3.37
2018-09-29T05:18:16.737Z,3.70
2018-09-29T05:20:45.155Z,3.20
2018-09-29T05:23:13.619Z,3.17
2018-09-29T05:25:41.984Z,3.27
2018-09-29T05:28:10.442Z,3.17
2018-09-29T05:30:38.848Z,3.00
2018-09-29T05:33:07.580Z,3.17
2018-09-29T05:35:36.029Z,2.90
2018-09-29T05:38:04.572Z,3.03
2018-09-29T05:40:32.996Z,3.20
2018-09-29T05:43:01.392Z,3.63
2018-09-29T05:45:29.782Z,3.27
2018-09-29T05:47:58.175Z,3.87
2018-09-29T05:50:26.911Z,3.37
2018-09-29T05:52:55.666Z,2.97
2018-09-29T05:55:24.101Z,3.13
2018-09-29T05:57:52.582Z,3.30
2018-09-29T06:00:21.079Z,3.53
2018-09-29T06:02:49.476Z,3.50
2018-09-29T06:05:18.033Z,3.50
2018-09-29T06:07:46.403Z,3.70
2018-09-29T06:10:14.792Z,3.90
2018-09-29T06:12:42.947Z,3.73
2018-09-29T06:15:11.387Z,4.00
2018-09-29T06:17:39.781Z,3.50
2018-09-29T06:20:08.234Z,3.73
2018-09-29T06:22:36.339Z,3.60
2018-09-29T06:25:04.821Z,3.23
2018-09-29T06:27:33.374Z,4.07
2018-09-29T06:30:01.899Z,3.40
2018-09-29T06:32:30.294Z,3.40
2018-09-29T06:34:58.684Z,3.50
2018-09-29T06:37:27.080Z,3.63
2018-09-29T06:39:55.536Z,3.67
2018-09-29T06:42:23.972Z,3.80
2018-09-29T06:44:52.783Z,3.97
2018-09-29T06:47:23.483Z,3.93
2018-09-29T06:49:51.908Z,3.90
2018-09-29T06:52:20.356Z,4.13
2018-09-29T06:54:48.737Z,4.10
2018-09-29T06:57:17.137Z,4.47
2018-09-29T06:59:45.478Z,3.70
2018-09-29T07:02:13.894Z,3.77
2018-09-29T07:04:42.416Z,4.20
2018-09-29T07:07:10.929Z,4.20
2018-09-29T07:09:39.402Z,3.57
2018-09-29T07:12:07.785Z,4.93
2018-09-29T07:14:36.266Z,4.13
2018-09-29T07:17:06.098Z,3.93
2018-09-29T07:19:34.904Z,4.00
2018-09-29T07:22:03.392Z,3.67
2018-09-29T07:24:31.797Z,3.90
2018-09-29T07:27:00.240Z,4.07
2018-09-29T07:29:28.634Z,3.97
2018-09-29T07:31:57.022Z,3.43
2018-09-29T07:34:25.601Z,3.03
2018-09-29T07:36:54.285Z,3.37
2018-09-29T07:39:23.851Z,3.70
2018-09-29T07:41:53.495Z,3.57
2018-09-29T07:44:23.192Z,3.73
2018-09-29T07:46:52.810Z,3.30
2018-09-29T07:49:21.227Z,3.77
2018-09-29T07:51:49.670Z,3.30
2018-09-29T07:54:18.082Z,3.57
2018-09-29T07:56:46.249Z,3.90
2018-09-29T07:59:14.369Z,3.57
2018-09-29T08:01:42.759Z,3.47
2018-09-29T08:04:11.141Z,3.73
2018-09-29T08:06:39.634Z,4.10
2018-09-29T08:09:08.416Z,3.43
2018-09-29T08:11:36.869Z,3.53
2018-09-29T08:14:06.726Z,3.80
2018-09-29T08:16:36.364Z,3.60
2018-09-29T08:19:04.760Z,3.57
2018-09-29T08:21:33.177Z,3.90
2018-09-29T08:24:01.672Z,3.60
2018-09-29T08:26:31.102Z,3.47
2018-09-29T08:29:00.622Z,3.33
2018-09-29T08:31:29.017Z,3.90
2018-09-29T08:33:57.446Z,3.40
2018-09-29T08:36:25.848Z,3.10
2018-09-29T08:38:54.285Z,3.17
2018-09-29T08:41:22.772Z,3.17
2018-09-29T08:43:51.366Z,3.43
2018-09-29T08:46:19.776Z,2.83
2018-09-29T08:48:48.192Z,3.37
2018-09-29T08:51:16.591Z,2.70
2018-09-29T08:53:45.238Z,3.53
2018-09-29T08:56:13.668Z,3.03
2018-09-29T08:58:42.116Z,3.00
2018-09-29T09:01:10.537Z,2.63
2018-09-29T09:03:38.976Z,2.77
2018-09-29T09:06:07.789Z,2.87
2018-09-29T09:08:36.196Z,3.27
2018-09-29T09:11:04.678Z,3.50
2018-09-29T09:13:33.084Z,2.80
2018-09-29T09:16:01.497Z,2.73
2018-09-29T09:18:29.596Z,3.07
2018-09-29T09:20:58.013Z,2.20
2018-09-29T09:23:26.464Z,2.90
2018-09-29T09:25:55.215Z,2.40
2018-09-29T09:28:23.728Z,2.10
2018-09-29T09:30:52.552Z,2.50
2018-09-29T09:33:20.958Z,2.50
2018-09-29T09:35:49.358Z,2.83
2018-09-29T09:38:17.780Z,2.90
2018-09-29T09:40:46.204Z,2.60
2018-09-29T09:43:14.599Z,2.33
2018-09-29T09:45:43.087Z,2.07
2018-09-29T09:48:11.492Z,2.60
2018-09-29T09:50:39.901Z,2.27
2018-09-29T09:53:08.317Z,2.47
2018-09-29T09:55:36.705Z,2.27
2018-09-29T09:58:05.213Z,2.37
2018-09-29T10:00:39.018Z,2.23
2018-09-29T10:03:12.882Z,2.37
2018-09-29T10:05:41.263Z,2.30
2018-09-29T10:08:09.651Z,2.53
2018-09-29T10:10:38.059Z,2.90
2018-09-29T10:13:07.012Z,2.40
2018-09-29T10:15:35.383Z,2.23
2018-09-29T10:18:04.106Z,2.77
2018-09-29T10:20:32.572Z,2.30
2018-09-29T10:23:01.257Z,2.03
2018-09-29T10:25:29.656Z,2.30
2018-09-29T10:27:58.145Z,2.03
2018-09-29T10:30:26.560Z,2.60
2018-09-29T10:32:54.979Z,2.67
2018-09-29T10:35:23.372Z,2.40
2018-09-29T10:37:51.793Z,1.97
2018-09-29T10:40:20.305Z,2.20
2018-09-29T10:42:48.753Z,1.97
2018-09-29T10:45:17.180Z,2.07
2018-09-29T10:47:45.636Z,2.37
2018-09-29T10:50:14.051Z,2.03
2018-09-29T10:52:42.912Z,2.13
2018-09-29T10:55:11.359Z,1.90
2018-09-29T10:57:40.088Z,1.80
2018-09-29T11:00:08.773Z,2.13
2018-09-29T11:02:37.331Z,2.00
2018-09-29T11:05:05.964Z,2.10
2018-09-29T11:07:34.290Z,2.03
2018-09-29T11:10:03.842Z,1.60
2018-09-29T11:12:32.238Z,2.00
2018-09-29T11:15:00.640Z,2.00
2018-09-29T11:17:29.061Z,2.33
2018-09-29T11:19:57.525Z,1.50
2018-09-29T11:22:25.948Z,1.73
2018-09-29T11:24:54.343Z,1.67
2018-09-29T11:27:22.744Z,1.77
2018-09-29T11:29:51.156Z,1.97
2018-09-29T11:32:19.589Z,1.80
2018-09-29T11:34:47.963Z,1.80
2018-09-29T11:37:16.375Z,1.40
2018-09-29T11:39:44.815Z,1.77
2018-09-29T11:42:13.218Z,1.80
2018-09-29T11:44:41.613Z,1.80
2018-09-29T11:47:10.013Z,1.90
2018-09-29T11:49:38.409Z,1.90
2018-09-29T11:52:06.996Z,2.03
2018-09-29T11:54:35.432Z,1.80
2018-09-29T11:57:03.884Z,1.83
2018-09-29T11:59:32.556Z,1.90
2018-09-29T12:02:01.063Z,1.63
2018-09-29T12:04:29.605Z,1.70
2018-09-29T12:06:58.280Z,1.73
2018-09-29T12:09:26.672Z,1.63
2018-09-29T12:11:55.203Z,1.87
2018-09-29T12:14:23.580Z,1.60
2018-09-29T12:16:52.012Z,1.90
2018-09-29T12:19:20.490Z,1.57
2018-09-29T12:21:49.894Z,1.73
2018-09-29T12:24:18.308Z,1.50
2018-09-29T12:26:46.784Z,1.80
2018-09-29T12:29:14.884Z,1.77
2018-09-29T12:31:43.815Z,1.87
2018-09-29T12:34:12.530Z,2.80
2018-09-29T12:36:40.987Z,3.10
2018-09-29T12:39:10.423Z,2.23
2018-09-29T12:41:39.093Z,1.80
2018-09-29T12:44:07.855Z,2.37
2018-09-29T12:46:36.348Z,1.70
2018-09-29T12:49:04.854Z,1.60
2018-09-29T12:51:33.388Z,1.70
2018-09-29T12:54:01.791Z,1.67
2018-09-29T12:56:30.200Z,1.80
2018-09-29T12:58:58.764Z,1.70
2018-09-29T13:01:27.112Z,1.90
2018-09-29T13:03:55.538Z,1.50
2018-09-29T13:06:24.104Z,1.67
2018-09-29T13:08:52.532Z,1.97
2018-09-29T13:11:21.052Z,1.50
2018-09-29T13:13:49.560Z,1.70
2018-09-29T13:16:17.971Z,2.17
2018-09-29T13:18:46.408Z,1.77
2018-09-29T13:21:15.077Z,1.77
2018-09-29T13:23:43.480Z,1.63
2018-09-29T13:26:11.913Z,1.60
2018-09-29T13:28:40.303Z,1.70
2018-09-29T13:31:08.763Z,1.90
2018-09-29T13:33:37.168Z,1.67
2018-09-29T13:36:05.604Z,1.50
2018-09-29T13:38:34.028Z,1.40
2018-09-29T13:41:02.477Z,1.70
2018-09-29T13:43:30.888Z,1.70
2018-09-29T13:45:59.371Z,1.70
2018-09-29T13:48:27.727Z,1.40
2018-09-29T13:50:56.230Z,1.80
2018-09-29T13:53:24.629Z,1.40
2018-09-29T13:55:53.072Z,1.60
2018-09-29T13:58:21.628Z,1.63
2018-09-29T14:00:50.325Z,1.60
2018-09-29T14:03:18.912Z,1.67
2018-09-29T14:05:47.410Z,1.60
2018-09-29T14:08:15.799Z,1.97
2018-09-29T14:10:44.245Z,1.97
2018-09-29T14:13:12.635Z,1.83
2018-09-29T14:15:41.103Z,1.67
2018-09-29T14:18:09.544Z,1.70
2018-09-29T14:20:38.007Z,1.77
2018-09-29T14:23:06.485Z,1.77
2018-09-29T14:25:35.004Z,1.70
2018-09-29T14:28:03.562Z,1.70
2018-09-29T14:30:32.164Z,1.90
2018-09-29T14:33:00.592Z,1.70
2018-09-29T14:35:28.996Z,1.87
2018-09-29T14:37:57.433Z,1.60
2018-09-29T14:40:25.940Z,1.57
2018-09-29T14:42:54.411Z,1.50
2018-09-29T14:45:22.845Z,2.77
2018-09-29T14:47:51.298Z,1.70
2018-09-29T14:50:19.709Z,1.80
2018-09-29T14:52:48.136Z,1.43
2018-09-29T14:55:16.578Z,1.70
2018-09-29T14:57:45.108Z,1.50
2018-09-29T15:00:13.579Z,1.73
2018-09-29T15:02:42.000Z,1.63
2018-09-29T15:05:10.403Z,1.63
2018-09-29T15:07:38.846Z,1.87
2018-09-29T15:10:07.435Z,1.50
2018-09-29T15:12:35.877Z,1.50
2018-09-29T15:15:04.505Z,1.60
2018-09-29T15:17:32.948Z,1.73
2018-09-29T15:20:01.383Z,1.63
2018-09-29T15:22:29.804Z,1.40
2018-09-29T15:24:58.201Z,1.60
2018-09-29T15:27:26.643Z,1.50
2018-09-29T15:29:55.084Z,1.83
2018-09-29T15:32:23.570Z,1.73
2018-09-29T15:34:52.036Z,1.50
2018-09-29T15:37:20.604Z,1.60
2018-09-29T15:39:49.068Z,1.60
2018-09-29T15:42:17.559Z,1.70
2018-09-29T15:44:45.958Z,1.60
2018-09-29T15:47:14.575Z,1.90
2018-09-29T15:49:43.100Z,1.47
2018-09-29T15:52:13.398Z,1.80
2018-09-29T15:54:42.142Z,1.60
2018-09-29T15:57:10.601Z,1.60
2018-09-29T15:59:39.828Z,1.50
2018-09-29T16:02:08.282Z,1.97
2018-09-29T16:04:36.727Z,1.60
2018-09-29T16:07:05.200Z,2.13
2018-09-29T16:09:33.683Z,2.17
2018-09-29T16:12:02.120Z,1.90
2018-09-29T16:14:30.584Z,2.10
2018-09-29T16:16:59.009Z,1.70
2018-09-29T16:19:27.482Z,1.70
2018-09-29T16:21:55.868Z,1.77
2018-09-29T16:24:24.457Z,1.93
2018-09-29T16:26:52.896Z,1.70
2018-09-29T16:29:21.308Z,1.97
2018-09-29T16:31:49.784Z,2.00
2018-09-29T16:34:18.242Z,1.77
2018-09-29T16:36:47.062Z,1.90
2018-09-29T16:39:15.546Z,5.27
2018-09-29T16:41:44.080Z,4.90
2018-09-29T16:44:12.528Z,5.97
2018-09-29T16:46:40.962Z,5.67
2018-09-29T16:49:09.600Z,5.17
2018-09-29T16:51:38.034Z,7.07
2018-09-29T16:54:06.478Z,5.20
2018-09-29T16:56:35.289Z,5.40
2018-09-29T16:59:03.733Z,15.07
2018-09-29T17:01:32.155Z,8.57
2018-09-29T17:04:00.862Z,14.40
2018-09-29T17:06:29.141Z,17.73
2018-09-29T17:08:57.564Z,16.53
2018-09-29T17:11:26.036Z,18.90
2018-09-29T17:13:54.441Z,18.53
2018-09-29T17:16:22.918Z,18.40
2018-09-29T17:18:54.845Z,18.37
2018-09-29T17:21:23.281Z,19.60
2018-09-29T17:23:51.740Z,26.50
2018-09-29T17:26:20.165Z,17.60
2018-09-29T17:28:48.597Z,19.57
2018-09-29T17:31:17.039Z,15.03
2018-09-29T17:33:45.479Z,12.20
2018-09-29T17:36:13.919Z,12.03
2018-09-29T17:38:42.332Z,9.83
2018-09-29T17:41:10.740Z,9.20
2018-09-29T17:43:39.132Z,9.47
2018-09-29T17:46:07.713Z,9.33
2018-09-29T17:48:36.141Z,8.03
2018-09-29T17:51:04.701Z,7.03
2018-09-29T17:53:33.124Z,7.27
2018-09-29T17:56:01.640Z,7.47
2018-09-29T17:58:30.055Z,7.83
2018-09-29T18:00:58.528Z,7.80
2018-09-29T18:03:26.962Z,8.93
2018-09-29T18:05:55.356Z,8.80
2018-09-29T18:08:23.867Z,9.27
2018-09-29T18:10:52.280Z,7.97
2018-09-29T18:13:20.886Z,7.90
2018-09-29T18:15:49.371Z,8.27
2018-09-29T18:18:17.827Z,7.87
2018-09-29T18:20:46.402Z,8.57
2018-09-29T18:23:14.839Z,10.27
2018-09-29T18:25:43.232Z,9.97
2018-09-29T18:28:11.937Z,9.83
2018-09-29T18:30:40.337Z,11.93
2018-09-29T18:33:08.803Z,10.10
2018-09-29T18:35:37.234Z,11.97
2018-09-29T18:38:05.723Z,13.90
2018-09-29T18:40:34.303Z,14.70
2018-09-29T18:43:02.691Z,18.27
2018-09-29T18:45:31.128Z,17.17
2018-09-29T18:47:59.669Z,17.17
2018-09-29T18:50:28.080Z,22.17
2018-09-29T18:52:56.529Z,17.90
2018-09-29T18:55:24.723Z,18.53
2018-09-29T18:57:53.223Z,16.97
2018-09-29T19:00:21.803Z,15.93
2018-09-29T19:02:50.200Z,15.33
2018-09-29T19:05:18.677Z,13.93
2018-09-29T19:07:47.069Z,13.60
2018-09-29T19:10:15.554Z,13.23
2018-09-29T19:12:44.143Z,13.17
2018-09-29T19:15:12.544Z,12.37
2018-09-29T19:17:41.088Z,11.43
2018-09-29T19:20:09.581Z,11.87
2018-09-29T19:22:38.100Z,10.83
2018-09-29T19:25:06.615Z,10.70
2018-09-29T19:27:35.068Z,10.10
2018-09-29T19:30:03.536Z,10.47
2018-09-29T19:32:31.963Z,9.13
2018-09-29T19:35:00.417Z,9.13
2018-09-29T19:37:28.916Z,8.63
2018-09-29T19:39:57.336Z,8.73
2018-09-29T19:42:25.823Z,8.70
2018-09-29T19:44:54.220Z,7.33
2018-09-29T19:47:22.795Z,7.77
2018-09-29T19:49:51.259Z,7.43
2018-09-29T19:52:19.774Z,7.30
2018-09-29T19:54:48.227Z,7.20
2018-09-29T19:57:16.742Z,7.10
2018-09-29T19:59:45.366Z,7.10
2018-09-29T20:02:13.878Z,6.60
2018-09-29T20:04:42.292Z,6.60
2018-09-29T20:07:10.725Z,6.40
2018-09-29T20:09:39.196Z,6.57
2018-09-29T20:12:07.636Z,5.90
2018-09-29T20:14:36.120Z,6.17
2018-09-29T20:17:04.575Z,6.20
2018-09-29T20:19:33.074Z,6.20
2018-09-29T20:22:01.492Z,5.90
2018-09-29T20:24:29.991Z,5.90
2018-09-29T20:26:58.320Z,5.30
2018-09-29T20:29:26.801Z,5.50
2018-09-29T20:31:55.236Z,5.50
2018-09-29T20:34:23.735Z,5.40
2018-09-29T20:36:52.186Z,5.00
2018-09-29T20:39:20.584Z,5.50
2018-09-29T20:41:49.030Z,5.40
2018-09-29T20:44:17.485Z,4.80
2018-09-29T20:46:45.895Z,5.40
2018-09-29T20:49:14.338Z,5.07
2018-09-29T20:51:42.716Z,5.37
2018-09-29T20:54:11.159Z,5.60
2018-09-29T20:56:39.561Z,5.73
2018-09-29T20:59:07.952Z,5.30
2018-09-29T21:01:36.399Z,5.10
2018-09-29T21:04:04.828Z,5.53
2018-09-29T21:06:33.196Z,5.50
2018-09-29T21:09:01.585Z,5.40
2018-09-29T21:11:30.032Z,5.60
2018-09-29T21:13:58.523Z,5.30
2018-09-29T21:16:26.970Z,5.60
2018-09-29T21:18:55.505Z,5.07
2018-09-29T21:21:23.944Z,5.37
2018-09-29T21:23:52.594Z,5.60
2018-09-29T21:26:21.334Z,5.57
2018-09-29T21:28:49.759Z,5.80
2018-09-29T21:31:18.197Z,5.80
2018-09-29T21:33:46.618Z,5.07
2018-09-29T21:36:15.062Z,5.40
2018-09-29T21:38:43.460Z,5.50
2018-09-29T21:41:11.899Z,5.90
2018-09-29T21:43:40.280Z,5.37
2018-09-29T21:46:08.800Z,5.67
2018-09-29T21:48:37.219Z,5.60
2018-09-29T21:51:05.641Z,5.60
2018-09-29T21:53:34.911Z,5.17
2018-09-29T21:56:03.355Z,5.03
2018-09-29T21:58:31.756Z,5.23
2018-09-29T22:01:05.539Z,5.30
2018-09-29T22:03:33.941Z,4.93
2018-09-29T22:06:02.333Z,5.90
2018-09-29T22:08:30.761Z,5.17
2018-09-29T22:10:59.260Z,5.20
2018-09-29T22:13:27.776Z,5.17
2018-09-29T22:15:56.186Z,4.37
2018-09-29T22:18:24.712Z,4.93
2018-09-29T22:20:53.276Z,4.80
2018-09-29T22:23:21.651Z,4.53
2018-09-29T22:25:50.075Z,4.30
2018-09-29T22:28:18.520Z,4.70
2018-09-29T22:30:46.908Z,4.73
2018-09-29T22:33:15.319Z,4.83
2018-09-29T22:35:44.073Z,4.63
2018-09-29T22:38:12.500Z,4.63
2018-09-29T22:40:40.945Z,5.10
2018-09-29T22:43:09.325Z,4.93
2018-09-29T22:45:37.801Z,5.07
2018-09-29T22:48:06.328Z,5.20
2018-09-29T22:50:34.712Z,4.93
2018-09-29T22:53:03.169Z,5.43
2018-09-29T22:55:31.576Z,5.40
2018-09-29T22:58:00.036Z,5.20
2018-09-29T23:00:28.421Z,5.27
2018-09-29T23:02:56.824Z,4.80
2018-09-29T23:05:25.249Z,5.00
2018-09-29T23:07:53.687Z,5.27
2018-09-29T23:10:22.072Z,4.47
2018-09-29T23:12:50.520Z,4.60
2018-09-29T23:15:19.042Z,4.33
2018-09-29T23:17:47.517Z,4.70
2018-09-29T23:20:15.948Z,4.10
2018-09-29T23:22:44.357Z,4.13
2018-09-29T23:25:12.748Z,4.20
2018-09-29T23:27:41.116Z,4.07
2018-09-29T23:30:09.651Z,4.30
2018-09-29T23:32:38.073Z,3.97
2018-09-29T23:35:06.564Z,4.30
2018-09-29T23:37:34.996Z,4.27
2018-09-29T23:40:03.482Z,4.30
2018-09-29T23:42:31.927Z,4.30
2018-09-29T23:45:00.330Z,4.60
2018-09-29T23:47:28.952Z,4.17
2018-09-29T23:49:57.418Z,4.53
2018-09-29T23:52:25.882Z,4.00
2018-09-29T23:54:54.303Z,3.80
2018-09-29T23:57:22.772Z,4.30
2018-09-29T23:59:51.185Z,3.80
